sensor_id;sensor_type;location;lat;lon;timestamp;pressure;altitude;pressure_sealevel;temperature;humidity
37764;BME280;23602;51.084;7.090;2023-03-20T00:01:26;100533.41;;;8.12;100.00
37764;BME280;23602;51.084;7.090;2023-03-20T00:03:52;100537.56;;;8.15;100.00
37764;BME280;23602;51.084;7.090;2023-03-20T00:06:25;100542.91;;;8.15;100.00
37764;BME280;23602;51.084;7.090;2023-03-20T00:08:51;100548.63;;;8.12;100.00
37764;BME280;23602;51.084;7.090;2023-03-20T00:13:55;100557.84;;;8.09;100.00
37764;BME280;23602;51.084;7.090;2023-03-20T00:16:21;100568.56;;;8.09;100.00
37764;BME280;23602;51.084;7.090;2023-03-20T00:18:47;100564.41;;;8.07;100.00
37764;BME280;23602;51.084;7.090;2023-03-20T00:21:17;100579.81;;;8.05;100.00
37764;BME280;23602;51.084;7.090;2023-03-20T00:23:44;100578.34;;;8.02;100.00
37764;BME280;23602;51.084;7.090;2023-03-20T00:26:16;100575.38;;;7.97;100.00
37764;BME280;23602;51.084;7.090;2023-03-20T00:28:45;100577.69;;;8.00;100.00
37764;BME280;23602;51.084;7.090;2023-03-20T00:33:43;100578.78;;;7.91;100.00
37764;BME280;23602;51.084;7.090;2023-03-20T00:36:09;100578.41;;;7.94;100.00
37764;BME280;23602;51.084;7.090;2023-03-20T00:38:35;100577.41;;;7.95;100.00
37764;BME280;23602;51.084;7.090;2023-03-20T00:41:00;100579.91;;;7.97;100.00
37764;BME280;23602;51.084;7.090;2023-03-20T00:43:25;100579.91;;;7.97;100.00
37764;BME280;23602;51.084;7.090;2023-03-20T00:45:51;100582.75;;;7.95;100.00
37764;BME280;23602;51.084;7.090;2023-03-20T00:48:17;100590.97;;;7.94;100.00
37764;BME280;23602;51.084;7.090;2023-03-20T00:50:42;100589.13;;;7.94;100.00
37764;BME280;23602;51.084;7.090;2023-03-20T00:53:08;100590.13;;;7.93;100.00
37764;BME280;23602;51.084;7.090;2023-03-20T00:55:34;100598.69;;;7.89;100.00
37764;BME280;23602;51.084;7.090;2023-03-20T00:58:00;100608.22;;;7.91;100.00
37764;BME280;23602;51.084;7.090;2023-03-20T01:00:33;100603.22;;;7.88;100.00
37764;BME280;23602;51.084;7.090;2023-03-20T01:03:00;100592.91;;;7.85;100.00
37764;BME280;23602;51.084;7.090;2023-03-20T01:05:26;100588.75;;;7.83;100.00
37764;BME280;23602;51.084;7.090;2023-03-20T01:07:53;100580.88;;;7.81;100.00
37764;BME280;23602;51.084;7.090;2023-03-20T01:10:18;100582.56;;;7.82;100.00
37764;BME280;23602;51.084;7.090;2023-03-20T01:12:44;100573.03;;;7.80;100.00
37764;BME280;23602;51.084;7.090;2023-03-20T01:15:20;100580.88;;;7.81;100.00
37764;BME280;23602;51.084;7.090;2023-03-20T01:17:46;100579.22;;;7.80;100.00
37764;BME280;23602;51.084;7.090;2023-03-20T01:20:16;100571.72;;;7.76;100.00
37764;BME280;23602;51.084;7.090;2023-03-20T01:22:41;100578.09;;;7.75;100.00
37764;BME280;23602;51.084;7.090;2023-03-20T01:25:07;100575.22;;;7.76;100.00
37764;BME280;23602;51.084;7.090;2023-03-20T01:27:32;100577.91;;;7.76;100.00
37764;BME280;23602;51.084;7.090;2023-03-20T01:29:58;100580.59;;;7.76;100.00
37764;BME280;23602;51.084;7.090;2023-03-20T01:32:23;100582.06;;;7.79;100.00
37764;BME280;23602;51.084;7.090;2023-03-20T01:34:48;100576.06;;;7.77;100.00
37764;BME280;23602;51.084;7.090;2023-03-20T01:37:22;100585.09;;;7.76;100.00
37764;BME280;23602;51.084;7.090;2023-03-20T01:39:47;100581.63;;;7.75;100.00
37764;BME280;23602;51.084;7.090;2023-03-20T01:42:14;100580.94;;;7.73;100.00
37764;BME280;23602;51.084;7.090;2023-03-20T01:44:39;100584.44;;;7.74;100.00
37764;BME280;23602;51.084;7.090;2023-03-20T01:47:10;100584.66;;;7.72;100.00
37764;BME280;23602;51.084;7.090;2023-03-20T01:52:22;100586.28;;;7.73;100.00
37764;BME280;23602;51.084;7.090;2023-03-20T01:54:50;100574.94;;;7.71;100.00
37764;BME280;23602;51.084;7.090;2023-03-20T01:57:17;100574.78;;;7.73;100.00
37764;BME280;23602;51.084;7.090;2023-03-20T02:02:11;100569.78;;;7.70;100.00
37764;BME280;23602;51.084;7.090;2023-03-20T02:04:40;100579.66;;;7.69;100.00
37764;BME280;23602;51.084;7.090;2023-03-20T02:07:06;100571.97;;;7.66;100.00
37764;BME280;23602;51.084;7.090;2023-03-20T02:09:33;100578.53;;;7.63;100.00
37764;BME280;23602;51.084;7.090;2023-03-20T02:11:58;100576.19;;;7.60;100.00
37764;BME280;23602;51.084;7.090;2023-03-20T02:14:24;100567.44;;;7.52;100.00
37764;BME280;23602;51.084;7.090;2023-03-20T02:16:52;100552.63;;;7.41;100.00
37764;BME280;23602;51.084;7.090;2023-03-20T02:32:36;100560.09;;;7.00;100.00
37764;BME280;23602;51.084;7.090;2023-03-20T02:37:58;100577.94;;;7.08;100.00
37764;BME280;23602;51.084;7.090;2023-03-20T02:40:45;100574.06;;;7.11;100.00
37764;BME280;23602;51.084;7.090;2023-03-20T02:43:25;100574.56;;;7.14;100.00
37764;BME280;23602;51.084;7.090;2023-03-20T02:45:56;100569.88;;;7.16;100.00
37764;BME280;23602;51.084;7.090;2023-03-20T02:56:11;100590.16;;;7.25;100.00
37764;BME280;23602;51.084;7.090;2023-03-20T03:04:01;100597.53;;;7.23;100.00
37764;BME280;23602;51.084;7.090;2023-03-20T03:06:29;100615.91;;;7.26;100.00
37764;BME280;23602;51.084;7.090;2023-03-20T03:11:44;100619.03;;;7.30;100.00
37764;BME280;23602;51.084;7.090;2023-03-20T03:14:20;100622.75;;;7.29;100.00
37764;BME280;23602;51.084;7.090;2023-03-20T03:16:49;100618.03;;;7.31;100.00
37764;BME280;23602;51.084;7.090;2023-03-20T03:19:17;100619.88;;;7.30;100.00
37764;BME280;23602;51.084;7.090;2023-03-20T03:21:44;100625.06;;;7.32;100.00
37764;BME280;23602;51.084;7.090;2023-03-20T03:24:19;100621.38;;;7.33;100.00
37764;BME280;23602;51.084;7.090;2023-03-20T03:26:47;100615.03;;;7.34;100.00
37764;BME280;23602;51.084;7.090;2023-03-20T03:29:13;100619.34;;;7.35;100.00
37764;BME280;23602;51.084;7.090;2023-03-20T03:31:41;100630.88;;;7.35;100.00
37764;BME280;23602;51.084;7.090;2023-03-20T03:34:07;100634.56;;;7.34;100.00
37764;BME280;23602;51.084;7.090;2023-03-20T03:39:23;100604.47;;;7.32;100.00
37764;BME280;23602;51.084;7.090;2023-03-20T03:42:02;100591.13;;;7.32;100.00
37764;BME280;23602;51.084;7.090;2023-03-20T03:47:15;100588.88;;;7.21;100.00
37764;BME280;23602;51.084;7.090;2023-03-20T03:49:46;100579.19;;;7.20;100.00
37764;BME280;23602;51.084;7.090;2023-03-20T03:52:14;100575.22;;;7.16;100.00
37764;BME280;23602;51.084;7.090;2023-03-20T03:57:07;100552.13;;;6.92;100.00
37764;BME280;23602;51.084;7.090;2023-03-20T03:59:37;100568.25;;;6.76;100.00
37764;BME280;23602;51.084;7.090;2023-03-20T04:02:06;100574.03;;;6.57;100.00
37764;BME280;23602;51.084;7.090;2023-03-20T04:04:33;100577.53;;;6.58;100.00
37764;BME280;23602;51.084;7.090;2023-03-20T04:07:00;100574.00;;;6.65;100.00
37764;BME280;23602;51.084;7.090;2023-03-20T04:09:25;100583.66;;;6.66;100.00
37764;BME280;23602;51.084;7.090;2023-03-20T04:11:51;100594.00;;;6.69;100.00
37764;BME280;23602;51.084;7.090;2023-03-20T04:14:17;100599.00;;;6.72;100.00
37764;BME280;23602;51.084;7.090;2023-03-20T04:16:42;100609.16;;;6.77;100.00
37764;BME280;23602;51.084;7.090;2023-03-20T04:19:07;100600.97;;;6.78;100.00
37764;BME280;23602;51.084;7.090;2023-03-20T04:21:33;100617.16;;;6.77;100.00
37764;BME280;23602;51.084;7.090;2023-03-20T04:23:58;100622.81;;;6.82;100.00
37764;BME280;23602;51.084;7.090;2023-03-20T04:26:24;100624.16;;;6.86;100.00
37764;BME280;23602;51.084;7.090;2023-03-20T04:28:49;100626.47;;;6.89;100.00
37764;BME280;23602;51.084;7.090;2023-03-20T04:31:15;100630.63;;;6.91;100.00
37764;BME280;23602;51.084;7.090;2023-03-20T04:33:42;100623.81;;;6.89;100.00
37764;BME280;23602;51.084;7.090;2023-03-20T04:36:07;100624.94;;;6.86;100.00
37764;BME280;23602;51.084;7.090;2023-03-20T04:38:33;100628.78;;;6.92;100.00
37764;BME280;23602;51.084;7.090;2023-03-20T04:40:58;100632.78;;;6.96;100.00
37764;BME280;23602;51.084;7.090;2023-03-20T04:43:24;100625.75;;;6.95;100.00
37764;BME280;23602;51.084;7.090;2023-03-20T04:45:50;100612.94;;;6.90;100.00
37764;BME280;23602;51.084;7.090;2023-03-20T04:48:15;100616.25;;;6.92;100.00
37764;BME280;23602;51.084;7.090;2023-03-20T04:50:43;100612.75;;;6.92;100.00
37764;BME280;23602;51.084;7.090;2023-03-20T04:53:12;100607.25;;;6.93;100.00
37764;BME280;23602;51.084;7.090;2023-03-20T04:55:37;100607.25;;;6.93;100.00
37764;BME280;23602;51.084;7.090;2023-03-20T04:58:03;100607.41;;;6.92;100.00
37764;BME280;23602;51.084;7.090;2023-03-20T05:00:31;100607.06;;;6.95;100.00
37764;BME280;23602;51.084;7.090;2023-03-20T05:02:57;100606.41;;;6.93;100.00
37764;BME280;23602;51.084;7.090;2023-03-20T05:05:22;100610.56;;;6.95;100.00
37764;BME280;23602;51.084;7.090;2023-03-20T05:07:48;100604.56;;;6.93;100.00
37764;BME280;23602;51.084;7.090;2023-03-20T05:10:14;100601.91;;;6.93;100.00
37764;BME280;23602;51.084;7.090;2023-03-20T05:12:40;100595.72;;;6.93;100.00
37764;BME280;23602;51.084;7.090;2023-03-20T05:15:06;100603.09;;;6.91;100.00
37764;BME280;23602;51.084;7.090;2023-03-20T05:17:31;100595.56;;;6.86;100.00
37764;BME280;23602;51.084;7.090;2023-03-20T05:19:57;100586.06;;;6.84;100.00
37764;BME280;23602;51.084;7.090;2023-03-20T05:22:25;100575.75;;;6.81;100.00
37764;BME280;23602;51.084;7.090;2023-03-20T05:24:51;100573.97;;;6.73;100.00
37764;BME280;23602;51.084;7.090;2023-03-20T05:27:16;100574.44;;;6.69;100.00
37764;BME280;23602;51.084;7.090;2023-03-20T05:29:41;100578.00;;;6.61;100.00
37764;BME280;23602;51.084;7.090;2023-03-20T05:32:07;100582.72;;;6.51;100.00
37764;BME280;23602;51.084;7.090;2023-03-20T05:34:32;100574.91;;;6.42;100.00
37764;BME280;23602;51.084;7.090;2023-03-20T05:36:58;100578.28;;;6.35;100.00
37764;BME280;23602;51.084;7.090;2023-03-20T05:39:23;100580.78;;;6.29;100.00
37764;BME280;23602;51.084;7.090;2023-03-20T05:41:48;100582.97;;;6.25;100.00
37764;BME280;23602;51.084;7.090;2023-03-20T05:44:17;100584.84;;;6.09;100.00
37764;BME280;23602;51.084;7.090;2023-03-20T05:46:42;100596.19;;;6.03;100.00
37764;BME280;23602;51.084;7.090;2023-03-20T05:49:08;100593.38;;;6.04;100.00
37764;BME280;23602;51.084;7.090;2023-03-20T05:51:33;100593.38;;;6.04;100.00
37764;BME280;23602;51.084;7.090;2023-03-20T05:54:08;100599.88;;;6.02;100.00
37764;BME280;23602;51.084;7.090;2023-03-20T05:56:33;100595.19;;;6.04;100.00
37764;BME280;23602;51.084;7.090;2023-03-20T05:58:58;100596.03;;;6.04;100.00
37764;BME280;23602;51.084;7.090;2023-03-20T06:01:24;100590.50;;;6.06;100.00
37764;BME280;23602;51.084;7.090;2023-03-20T06:03:50;100599.19;;;6.08;100.00
37764;BME280;23602;51.084;7.090;2023-03-20T06:06:15;100588.34;;;6.09;100.00
37764;BME280;23602;51.084;7.090;2023-03-20T06:08:41;100587.50;;;6.09;100.00
37764;BME280;23602;51.084;7.090;2023-03-20T06:11:07;100585.84;;;6.08;100.00
37764;BME280;23602;51.084;7.090;2023-03-20T06:13:33;100583.16;;;6.08;100.00
37764;BME280;23602;51.084;7.090;2023-03-20T06:15:58;100585.84;;;6.08;100.00
37764;BME280;23602;51.084;7.090;2023-03-20T06:18:24;100582.84;;;6.11;100.00
37764;BME280;23602;51.084;7.090;2023-03-20T06:20:53;100592.34;;;6.13;100.00
37764;BME280;23602;51.084;7.090;2023-03-20T06:23:20;100581.81;;;6.20;100.00
37764;BME280;23602;51.084;7.090;2023-03-20T06:25:45;100591.16;;;6.24;100.00
37764;BME280;23602;51.084;7.090;2023-03-20T06:28:11;100597.66;;;6.29;100.00
37764;BME280;23602;51.084;7.090;2023-03-20T06:30:36;100592.44;;;6.36;100.00
37764;BME280;23602;51.084;7.090;2023-03-20T06:33:02;100586.94;;;6.46;100.00
37764;BME280;23602;51.084;7.090;2023-03-20T06:35:27;100592.72;;;6.57;100.00
37764;BME280;23602;51.084;7.090;2023-03-20T06:37:55;100584.47;;;6.67;100.00
37764;BME280;23602;51.084;7.090;2023-03-20T06:40:20;100582.63;;;6.75;100.00
37764;BME280;23602;51.084;7.090;2023-03-20T06:42:46;100581.09;;;6.81;100.00
37764;BME280;23602;51.084;7.090;2023-03-20T06:45:12;100569.88;;;6.85;100.00
37764;BME280;23602;51.084;7.090;2023-03-20T06:47:38;100570.38;;;6.89;100.00
37764;BME280;23602;51.084;7.090;2023-03-20T06:50:03;100574.16;;;6.94;100.00
37764;BME280;23602;51.084;7.090;2023-03-20T06:52:29;100578.19;;;6.90;100.00
37764;BME280;23602;51.084;7.090;2023-03-20T06:54:54;100569.66;;;6.95;100.00
37764;BME280;23602;51.084;7.090;2023-03-20T06:57:20;100555.75;;;6.99;100.00
37764;BME280;23602;51.084;7.090;2023-03-20T06:59:46;100576.47;;;6.97;100.00
37764;BME280;23602;51.084;7.090;2023-03-20T07:02:11;100571.63;;;7.01;100.00
37764;BME280;23602;51.084;7.090;2023-03-20T07:04:37;100580.50;;;7.02;100.00
37764;BME280;23602;51.084;7.090;2023-03-20T07:07:02;100586.94;;;7.07;100.00
37764;BME280;23602;51.084;7.090;2023-03-20T07:09:28;100596.59;;;7.16;100.00
37764;BME280;23602;51.084;7.090;2023-03-20T07:11:53;100581.00;;;7.20;100.00
37764;BME280;23602;51.084;7.090;2023-03-20T07:14:18;100580.81;;;7.29;100.00
37764;BME280;23602;51.084;7.090;2023-03-20T07:16:46;100556.16;;;7.19;100.00
37764;BME280;23602;51.084;7.090;2023-03-20T07:19:12;100557.81;;;7.20;100.00
37764;BME280;23602;51.084;7.090;2023-03-20T07:21:38;100559.53;;;7.36;100.00
37764;BME280;23602;51.084;7.090;2023-03-20T07:24:05;100567.84;;;7.41;100.00
37764;BME280;23602;51.084;7.090;2023-03-20T07:26:31;100561.34;;;7.58;100.00
37764;BME280;23602;51.084;7.090;2023-03-20T07:28:56;100548.16;;;7.56;100.00
37764;BME280;23602;51.084;7.090;2023-03-20T07:31:23;100538.06;;;7.44;100.00
37764;BME280;23602;51.084;7.090;2023-03-20T07:33:48;100548.09;;;7.64;100.00
37764;BME280;23602;51.084;7.090;2023-03-20T07:36:14;100540.09;;;7.79;100.00
37764;BME280;23602;51.084;7.090;2023-03-20T07:38:39;100540.28;;;7.78;100.00
37764;BME280;23602;51.084;7.090;2023-03-20T07:41:05;100552.28;;;7.82;100.00
37764;BME280;23602;51.084;7.090;2023-03-20T07:43:30;100559.03;;;7.92;100.00
37764;BME280;23602;51.084;7.090;2023-03-20T07:45:56;100539.09;;;7.95;100.00
37764;BME280;23602;51.084;7.090;2023-03-20T07:48:21;100546.03;;;8.04;100.00
37764;BME280;23602;51.084;7.090;2023-03-20T07:50:47;100547.59;;;7.98;100.00
37764;BME280;23602;51.084;7.090;2023-03-20T07:53:12;100544.31;;;8.11;100.00
37764;BME280;23602;51.084;7.090;2023-03-20T07:55:37;100542.16;;;8.06;100.00
37764;BME280;23602;51.084;7.090;2023-03-20T07:58:03;100549.09;;;8.15;100.00
37764;BME280;23602;51.084;7.090;2023-03-20T08:00:28;100547.97;;;8.24;100.00
37764;BME280;23602;51.084;7.090;2023-03-20T08:02:54;100550.22;;;8.21;100.00
37764;BME280;23602;51.084;7.090;2023-03-20T08:05:21;100540.22;;;8.15;100.00
37764;BME280;23602;51.084;7.090;2023-03-20T08:07:46;100533.59;;;8.11;100.00
37764;BME280;23602;51.084;7.090;2023-03-20T08:10:11;100552.78;;;8.14;100.00
37764;BME280;23602;51.084;7.090;2023-03-20T08:12:37;100531.53;;;7.98;100.00
37764;BME280;23602;51.084;7.090;2023-03-20T08:15:02;100543.97;;;7.91;100.00
37764;BME280;23602;51.084;7.090;2023-03-20T08:17:28;100552.78;;;8.00;100.00
37764;BME280;23602;51.084;7.090;2023-03-20T08:19:53;100559.03;;;7.92;100.00
37764;BME280;23602;51.084;7.090;2023-03-20T08:22:19;100545.81;;;7.76;100.00
37764;BME280;23602;51.084;7.090;2023-03-20T08:24:44;100556.16;;;7.79;100.00
37764;BME280;23602;51.084;7.090;2023-03-20T08:27:10;100557.66;;;7.96;100.00
37764;BME280;23602;51.084;7.090;2023-03-20T08:29:35;100557.28;;;7.99;100.00
37764;BME280;23602;51.084;7.090;2023-03-20T08:32:00;100543.25;;;7.97;100.00
37764;BME280;23602;51.084;7.090;2023-03-20T08:34:26;100543.53;;;8.02;100.00
37764;BME280;23602;51.084;7.090;2023-03-20T08:36:52;100546.88;;;8.19;100.00
37764;BME280;23602;51.084;7.090;2023-03-20T08:39:18;100531.84;;;8.03;100.00
37764;BME280;23602;51.084;7.090;2023-03-20T08:41:43;100530.16;;;8.02;100.00
37764;BME280;23602;51.084;7.090;2023-03-20T08:44:10;100555.19;;;8.09;100.00
37764;BME280;23602;51.084;7.090;2023-03-20T08:46:35;100544.66;;;8.22;100.00
37764;BME280;23602;51.084;7.090;2023-03-20T08:49:01;100541.28;;;8.29;100.00
37764;BME280;23602;51.084;7.090;2023-03-20T08:51:26;100545.25;;;8.33;100.00
37764;BME280;23602;51.084;7.090;2023-03-20T08:53:52;100542.66;;;8.54;100.00
37764;BME280;23602;51.084;7.090;2023-03-20T08:56:17;100537.75;;;8.43;100.00
37764;BME280;23602;51.084;7.090;2023-03-20T08:58:42;100540.41;;;8.72;100.00
37764;BME280;23602;51.084;7.090;2023-03-20T09:01:09;100532.56;;;8.56;100.00
37764;BME280;23602;51.084;7.090;2023-03-20T09:03:34;100532.28;;;8.65;100.00
37764;BME280;23602;51.084;7.090;2023-03-20T09:06:00;100536.66;;;8.87;100.00
37764;BME280;23602;51.084;7.090;2023-03-20T09:08:28;100529.44;;;8.88;100.00
37764;BME280;23602;51.084;7.090;2023-03-20T09:10:53;100537.31;;;9.11;100.00
37764;BME280;23602;51.084;7.090;2023-03-20T09:13:19;100530.50;;;9.29;100.00
37764;BME280;23602;51.084;7.090;2023-03-20T09:15:46;100525.53;;;9.47;100.00
37764;BME280;23602;51.084;7.090;2023-03-20T09:18:14;100520.28;;;9.39;100.00
37764;BME280;23602;51.084;7.090;2023-03-20T09:20:39;100531.13;;;9.31;100.00
37764;BME280;23602;51.084;7.090;2023-03-20T09:23:05;100534.44;;;9.33;100.00
37764;BME280;23602;51.084;7.090;2023-03-20T09:25:33;100535.88;;;9.29;100.00
37764;BME280;23602;51.084;7.090;2023-03-20T09:27:58;100530.84;;;9.20;100.00
37764;BME280;23602;51.084;7.090;2023-03-20T09:30:23;100525.91;;;9.23;100.00
37764;BME280;23602;51.084;7.090;2023-03-20T09:32:49;100534.19;;;9.28;100.00
37764;BME280;23602;51.084;7.090;2023-03-20T09:35:15;100529.19;;;8.83;100.00
37764;BME280;23602;51.084;7.090;2023-03-20T09:37:41;100530.75;;;8.77;100.00
37764;BME280;23602;51.084;7.090;2023-03-20T09:40:06;100535.50;;;8.75;100.00
37764;BME280;23602;51.084;7.090;2023-03-20T09:45:07;100529.44;;;8.23;100.00
37764;BME280;23602;51.084;7.090;2023-03-20T09:50:37;100530.81;;;8.19;100.00
37764;BME280;23602;51.084;7.090;2023-03-20T09:53:07;100530.28;;;8.23;100.00
37764;BME280;23602;51.084;7.090;2023-03-20T09:55:35;100524.75;;;8.40;100.00
37764;BME280;23602;51.084;7.090;2023-03-20T09:58:22;100512.81;;;8.42;100.00
37764;BME280;23602;51.084;7.090;2023-03-20T10:00:51;100522.09;;;8.75;100.00
37764;BME280;23602;51.084;7.090;2023-03-20T10:03:21;100525.66;;;8.97;100.00
37764;BME280;23602;51.084;7.090;2023-03-20T10:06:04;100532.94;;;9.24;100.00
37764;BME280;23602;51.084;7.090;2023-03-20T10:08:39;100519.28;;;9.19;100.00
37764;BME280;23602;51.084;7.090;2023-03-20T10:18:59;100527.28;;;8.98;100.00
37764;BME280;23602;51.084;7.090;2023-03-20T10:21:31;100512.94;;;8.70;100.00
37764;BME280;23602;51.084;7.090;2023-03-20T10:24:05;100514.88;;;8.76;100.00
37764;BME280;23602;51.084;7.090;2023-03-20T10:26:36;100522.25;;;8.88;100.00
37764;BME280;23602;51.084;7.090;2023-03-20T10:29:28;100520.81;;;9.07;100.00
37764;BME280;23602;51.084;7.090;2023-03-20T10:37:21;100516.06;;;9.09;100.00
37764;BME280;23602;51.084;7.090;2023-03-20T10:39:59;100521.69;;;9.14;100.00
37764;BME280;23602;51.084;7.090;2023-03-20T10:42:31;100509.69;;;9.10;100.00
37764;BME280;23602;51.084;7.090;2023-03-20T10:44:58;100506.63;;;8.92;100.00
37764;BME280;23602;51.084;7.090;2023-03-20T10:47:26;100503.34;;;8.75;100.00
37764;BME280;23602;51.084;7.090;2023-03-20T10:50:04;100506.81;;;8.90;100.00
37764;BME280;23602;51.084;7.090;2023-03-20T10:52:32;100501.84;;;9.09;100.00
37764;BME280;23602;51.084;7.090;2023-03-20T10:58:05;100493.47;;;9.18;100.00
37764;BME280;23602;51.084;7.090;2023-03-20T11:00:41;100494.44;;;9.32;100.00
37764;BME280;23602;51.084;7.090;2023-03-20T11:03:15;100492.34;;;9.27;100.00
37764;BME280;23602;51.084;7.090;2023-03-20T11:05:41;100499.31;;;9.49;100.00
37764;BME280;23602;51.084;7.090;2023-03-20T11:08:11;100497.41;;;9.43;100.00
37764;BME280;23602;51.084;7.090;2023-03-20T11:10:55;100502.59;;;9.73;100.00
37764;BME280;23602;51.084;7.090;2023-03-20T11:13:25;100496.13;;;9.61;100.00
37764;BME280;23602;51.084;7.090;2023-03-20T11:16:06;100494.84;;;9.57;100.00
37764;BME280;23602;51.084;7.090;2023-03-20T11:18:33;100496.94;;;9.61;100.00
37764;BME280;23602;51.084;7.090;2023-03-20T11:21:03;100494.03;;;9.84;100.00
37764;BME280;23602;51.084;7.090;2023-03-20T11:23:32;100483.56;;;9.68;100.00
37764;BME280;23602;51.084;7.090;2023-03-20T11:25:59;100481.41;;;9.57;100.00
37764;BME280;23602;51.084;7.090;2023-03-20T11:28:34;100483.19;;;9.43;100.00
37764;BME280;23602;51.084;7.090;2023-03-20T11:31:14;100481.38;;;9.50;100.00
37764;BME280;23602;51.084;7.090;2023-03-20T11:33:44;100477.41;;;9.46;100.00
37764;BME280;23602;51.084;7.090;2023-03-20T11:38:46;100471.31;;;9.31;100.00
37764;BME280;23602;51.084;7.090;2023-03-20T11:41:20;100466.91;;;9.23;100.00
37764;BME280;23602;51.084;7.090;2023-03-20T11:43:46;100459.78;;;9.09;100.00
37764;BME280;23602;51.084;7.090;2023-03-20T11:46:12;100456.97;;;9.17;100.00
37764;BME280;23602;51.084;7.090;2023-03-20T11:48:40;100452.22;;;9.40;100.00
37764;BME280;23602;51.084;7.090;2023-03-20T11:51:09;100450.09;;;9.36;100.00
37764;BME280;23602;51.084;7.090;2023-03-20T11:53:38;100458.72;;;9.31;100.00
37764;BME280;23602;51.084;7.090;2023-03-20T11:58:35;100463.34;;;9.65;100.00
37764;BME280;23602;51.084;7.090;2023-03-20T12:01:09;100460.81;;;9.64;100.00
37764;BME280;23602;51.084;7.090;2023-03-20T12:09:03;100454.91;;;9.68;100.00
37764;BME280;23602;51.084;7.090;2023-03-20T12:11:37;100456.16;;;9.44;100.00
37764;BME280;23602;51.084;7.090;2023-03-20T12:14:05;100460.56;;;9.52;100.00
37764;BME280;23602;51.084;7.090;2023-03-20T12:16:34;100454.66;;;9.35;100.00
37764;BME280;23602;51.084;7.090;2023-03-20T12:19:05;100455.69;;;9.13;100.00
37764;BME280;23602;51.084;7.090;2023-03-20T12:21:38;100459.81;;;9.16;100.00
37764;BME280;23602;51.084;7.090;2023-03-20T12:27:00;100453.72;;;9.01;100.00
37764;BME280;23602;51.084;7.090;2023-03-20T12:29:36;100452.66;;;8.59;100.00
37764;BME280;23602;51.084;7.090;2023-03-20T12:37:10;100453.78;;;9.07;100.00
37764;BME280;23602;51.084;7.090;2023-03-20T12:39:52;100450.31;;;9.34;100.00
37764;BME280;23602;51.084;7.090;2023-03-20T12:50:07;100443.50;;;9.66;100.00
37764;BME280;23602;51.084;7.090;2023-03-20T12:57:53;100435.53;;;9.17;100.00
37764;BME280;23602;51.084;7.090;2023-03-20T13:05:27;100435.84;;;8.65;100.00
37764;BME280;23602;51.084;7.090;2023-03-20T13:10:34;100434.13;;;8.79;100.00
37764;BME280;23602;51.084;7.090;2023-03-20T13:16:13;100432.16;;;8.52;100.00
37764;BME280;23602;51.084;7.090;2023-03-20T13:18:54;100429.59;;;8.58;100.00
37764;BME280;23602;51.084;7.090;2023-03-20T13:21:33;100430.63;;;8.43;100.00
37764;BME280;23602;51.084;7.090;2023-03-20T13:26:36;100427.22;;;9.12;100.00
37764;BME280;23602;51.084;7.090;2023-03-20T13:31:35;100415.47;;;9.13;100.00
37764;BME280;23602;51.084;7.090;2023-03-20T13:39:23;100412.84;;;9.20;100.00
37764;BME280;23602;51.084;7.090;2023-03-20T13:41:53;100407.19;;;9.36;100.00
37764;BME280;23602;51.084;7.090;2023-03-20T13:44:21;100404.59;;;9.49;100.00
37764;BME280;23602;51.084;7.090;2023-03-20T13:46:49;100411.28;;;9.60;100.00
37764;BME280;23602;51.084;7.090;2023-03-20T13:52:17;100408.97;;;9.22;100.00
37764;BME280;23602;51.084;7.090;2023-03-20T14:02:44;100391.31;;;9.34;100.00
37764;BME280;23602;51.084;7.090;2023-03-20T14:05:17;100383.97;;;9.49;100.00
37764;BME280;23602;51.084;7.090;2023-03-20T14:07:49;100372.22;;;9.50;100.00
37764;BME280;23602;51.084;7.090;2023-03-20T14:10:39;100377.00;;;9.55;100.00
37764;BME280;23602;51.084;7.090;2023-03-20T14:13:13;100370.66;;;9.69;100.00
37764;BME280;23602;51.084;7.090;2023-03-20T14:15:42;100373.31;;;9.63;100.00
37764;BME280;23602;51.084;7.090;2023-03-20T14:18:15;100383.25;;;9.69;100.00
37764;BME280;23602;51.084;7.090;2023-03-20T14:20:43;100378.31;;;9.66;100.00
37764;BME280;23602;51.084;7.090;2023-03-20T14:23:26;100380.63;;;9.75;100.00
37764;BME280;23602;51.084;7.090;2023-03-20T14:25:56;100384.84;;;9.91;100.00
37764;BME280;23602;51.084;7.090;2023-03-20T14:28:27;100390.38;;;9.83;100.00
37764;BME280;23602;51.084;7.090;2023-03-20T14:33:51;100376.38;;;9.53;100.00
37764;BME280;23602;51.084;7.090;2023-03-20T14:36:20;100381.78;;;9.66;100.00
37764;BME280;23602;51.084;7.090;2023-03-20T14:39:03;100377.53;;;9.78;100.00
37764;BME280;23602;51.084;7.090;2023-03-20T14:41:32;100373.03;;;9.85;100.00
37764;BME280;23602;51.084;7.090;2023-03-20T14:49:20;100369.03;;;9.68;100.00
37764;BME280;23602;51.084;7.090;2023-03-20T14:51:50;100367.00;;;9.77;100.00
37764;BME280;23602;51.084;7.090;2023-03-20T14:56:50;100360.84;;;9.83;100.00
37764;BME280;23602;51.084;7.090;2023-03-20T14:59:18;100349.72;;;9.86;100.00
37764;BME280;23602;51.084;7.090;2023-03-20T15:01:52;100352.44;;;9.99;100.00
37764;BME280;23602;51.084;7.090;2023-03-20T15:04:33;100346.69;;;10.08;100.00
37764;BME280;23602;51.084;7.090;2023-03-20T15:09:29;100341.91;;;9.97;100.00
37764;BME280;23602;51.084;7.090;2023-03-20T15:11:57;100346.81;;;9.87;100.00
37764;BME280;23602;51.084;7.090;2023-03-20T15:14:30;100345.91;;;9.74;100.00
37764;BME280;23602;51.084;7.090;2023-03-20T15:16:57;100346.72;;;9.68;100.00
37764;BME280;23602;51.084;7.090;2023-03-20T15:19:31;100357.47;;;9.68;100.00
37764;BME280;23602;51.084;7.090;2023-03-20T15:22:15;100352.09;;;9.68;100.00
37764;BME280;23602;51.084;7.090;2023-03-20T15:24:52;100345.56;;;9.83;100.00